This is the latest recevied weather packets stored in our database for station/object PU3XGS-13. If no packets are shown the sender has not sent any weather packets the latest 10 day(s).
| Time | Temp. | Humidity | Pressure | Rain* | Wind** | Luminosity | Snow |
|---|---|---|---|---|---|---|---|
| 1777923392 | 25.56° C | 60% | 1013.8 hPa | - | - | - | - |
| 1777920993 | 26.67° C | 52% | 1013.6 hPa | - | - | - | - |
| 1777918593 | 28.33° C | 48% | 1013.1 hPa | - | - | - | - |
| 1777916193 | 28.89° C | 45% | 1013.3 hPa | - | - | - | - |
| 1777913793 | 28.89° C | 45% | 1014.1 hPa | - | - | - | - |
| 1777911393 | 27.78° C | 44% | 1014.4 hPa | - | - | - | - |
| 1777908993 | 28.33° C | 42% | 1014.9 hPa | - | - | - | - |
| 1777906593 | 26.67° C | 44% | 1015.5 hPa | - | - | - | - |
| 1777904192 | 24.44° C | 47% | 1016.1 hPa | - | - | - | - |
| 1777901793 | 24.44° C | 45% | 1016.6 hPa | - | - | - | - |
| 1777899393 | 21.67° C | 50% | 1016.9 hPa | - | - | - | - |
| 1777896992 | 18.89° C | 58% | 1016.8 hPa | - | - | - | - |
| 1777894592 | 18.33° C | 58% | 1016.6 hPa | - | - | - | - |
| 1777892193 | 15.56° C | 63% | 1016.7 hPa | - | - | - | - |
| 1777889792 | 15.56° C | 62% | 1016.7 hPa | - | - | - | - |
| 1777887393 | 15.56° C | 61% | 1016.4 hPa | - | - | - | - |
| 1777884993 | 15.56° C | 61% | 1016.5 hPa | - | - | - | - |
| 1777882592 | 15.56° C | 63% | 1016.3 hPa | - | - | - | - |
| 1777880192 | 15.56° C | 62% | 1016.4 hPa | - | - | - | - |
| 1777877792 | 14.44° C | 65% | 1016.5 hPa | - | - | - | - |
| 1777875392 | 15.56° C | 63% | 1016.9 hPa | - | - | - | - |
| 1777872992 | 15.56° C | 62% | 1017 hPa | - | - | - | - |
| 1777870593 | 16.11° C | 61% | 1018 hPa | - | - | - | - |
| 1777868193 | 16.11° C | 61% | 1018.2 hPa | - | - | - | - |
| 1777865792 | 15.56° C | 62% | 1018.3 hPa | - | - | - | - |
* Rain since midnight (hover to see other rain measurements)
** Current wind speed in m/s (hover to see current wind gust speed)